Terminal Aerodrome Forecast
Issued by NWS Flagstaff, AZ

Home | Current Version | Previous Version | Text Only | Print | Product List | Glossary On
Versions: 1 2 3 4 5 6 7 8 9 10 11 12 13
000
FTUS45 KFGZ 292320
TAFINW
TAF
KINW 292320Z 3000/3024 10010KT P6SM BKN110
      TEMPO 3000/3004 VRB10G20KT -SHRA BKN090
     FM300500 VRB06KT P6SM BKN100 BKN250
     FM301800 15008KT P6SM BKN100 PROB30 3020/3024 VRB15G25KT 6SM
      -TSRA BKN090CB=

USA.gov is the U.S. government's official web portal to all federal, state and local government web resources and services.